Mountain Home Air Force Base Mountain Home US
ICAO: KMUO
IATA: MUO
Category: Large
Scheduled Services: No

Elevation: 2996 ft
TransAlt. 18000 ft.

Airport Communications:
APP:124.8
ATIS:27.35
CLNC DEL:127.1
DEP:37.12
GND:120.5
PMSV METRO:34.25
ACC COMD POST:38.13
PTD:138.9
BOISE RDO:122.6
TWR:133.85

KMUO Zoom In..

Runways:

(A) RW 12 length 13508 ft width 200 ft
ILS 110.30 / hdg 117

(B) RW 30 length 13508 ft width 200 ft
ILS 111.70 / hdg 297

Location; KMUO
Day. 17 / Time. 06.58 Zulu
* Altimeter: 30.04
* Temperature: 21° c. 69.8°f.
* Wind from: 260° Speed 05 kn.
Dewpoint: 09° c.
Visibility: 10 Statute Miles.
Clouds: Clear (automated report).

KMUO 170658Z 26005KT 10SM CLR 21/09 A3004 RMK AO2A SLP143 T02110090 403660208 $


Wind From 260°
Speed 05 kn.

 
 
jpsmedia.com for Web Design worldairports.se 2018   terms of use